sensor_id;sensor_type;location;lat;lon;timestamp;temperature;humidity
25532;DHT22;13429;48.816;9.118;2024-03-06T00:01:34;5.20;87.00
25532;DHT22;13429;48.816;9.118;2024-03-06T00:04:02;5.20;86.90
25532;DHT22;13429;48.816;9.118;2024-03-06T00:06:29;5.20;86.90
25532;DHT22;13429;48.816;9.118;2024-03-06T00:08:55;5.30;87.00
25532;DHT22;13429;48.816;9.118;2024-03-06T00:11:21;5.30;86.90
25532;DHT22;13429;48.816;9.118;2024-03-06T00:13:47;5.30;87.00
25532;DHT22;13429;48.816;9.118;2024-03-06T00:16:13;5.30;86.90
25532;DHT22;13429;48.816;9.118;2024-03-06T00:18:39;5.30;86.90
25532;DHT22;13429;48.816;9.118;2024-03-06T00:21:05;5.30;86.90
25532;DHT22;13429;48.816;9.118;2024-03-06T00:23:32;5.30;87.00
25532;DHT22;13429;48.816;9.118;2024-03-06T00:25:57;5.30;87.00
25532;DHT22;13429;48.816;9.118;2024-03-06T00:28:23;5.30;87.00
25532;DHT22;13429;48.816;9.118;2024-03-06T00:30:49;5.30;87.10
25532;DHT22;13429;48.816;9.118;2024-03-06T00:33:15;5.30;87.10
25532;DHT22;13429;48.816;9.118;2024-03-06T00:35:41;5.40;87.10
25532;DHT22;13429;48.816;9.118;2024-03-06T00:38:06;5.40;87.10
25532;DHT22;13429;48.816;9.118;2024-03-06T00:40:32;5.40;87.20
25532;DHT22;13429;48.816;9.118;2024-03-06T00:42:58;5.40;87.40
25532;DHT22;13429;48.816;9.118;2024-03-06T00:45:24;5.40;87.30
25532;DHT22;13429;48.816;9.118;2024-03-06T00:47:50;5.40;87.10
25532;DHT22;13429;48.816;9.118;2024-03-06T00:50:16;5.40;87.20
25532;DHT22;13429;48.816;9.118;2024-03-06T00:52:42;5.40;87.30
25532;DHT22;13429;48.816;9.118;2024-03-06T00:55:09;5.50;87.20
25532;DHT22;13429;48.816;9.118;2024-03-06T00:57:35;5.50;87.10
25532;DHT22;13429;48.816;9.118;2024-03-06T01:00:04;5.50;87.20
25532;DHT22;13429;48.816;9.118;2024-03-06T01:02:39;5.50;87.40
25532;DHT22;13429;48.816;9.118;2024-03-06T01:05:06;5.40;87.50
25532;DHT22;13429;48.816;9.118;2024-03-06T01:07:37;5.40;87.60
25532;DHT22;13429;48.816;9.118;2024-03-06T01:10:03;5.30;87.80
25532;DHT22;13429;48.816;9.118;2024-03-06T01:12:29;5.30;88.00
25532;DHT22;13429;48.816;9.118;2024-03-06T01:14:55;5.30;87.90
25532;DHT22;13429;48.816;9.118;2024-03-06T01:17:21;5.30;87.70
25532;DHT22;13429;48.816;9.118;2024-03-06T01:19:46;5.30;87.70
25532;DHT22;13429;48.816;9.118;2024-03-06T01:22:12;5.30;87.70
25532;DHT22;13429;48.816;9.118;2024-03-06T01:24:40;5.30;87.80
25532;DHT22;13429;48.816;9.118;2024-03-06T01:27:06;5.30;88.00
25532;DHT22;13429;48.816;9.118;2024-03-06T01:29:32;5.20;87.70
25532;DHT22;13429;48.816;9.118;2024-03-06T01:31:58;5.30;87.70
25532;DHT22;13429;48.816;9.118;2024-03-06T01:34:24;5.30;87.90
25532;DHT22;13429;48.816;9.118;2024-03-06T01:36:50;5.30;87.80
25532;DHT22;13429;48.816;9.118;2024-03-06T01:39:16;5.30;87.80
25532;DHT22;13429;48.816;9.118;2024-03-06T01:41:49;5.30;87.80
25532;DHT22;13429;48.816;9.118;2024-03-06T01:44:17;5.30;87.90
25532;DHT22;13429;48.816;9.118;2024-03-06T01:46:46;5.30;88.00
25532;DHT22;13429;48.816;9.118;2024-03-06T01:49:13;5.20;88.00
25532;DHT22;13429;48.816;9.118;2024-03-06T01:51:45;5.20;88.40
25532;DHT22;13429;48.816;9.118;2024-03-06T01:54:13;5.30;88.50
25532;DHT22;13429;48.816;9.118;2024-03-06T01:56:44;5.20;88.40
25532;DHT22;13429;48.816;9.118;2024-03-06T01:59:30;5.20;88.30
25532;DHT22;13429;48.816;9.118;2024-03-06T02:01:55;5.20;88.60
25532;DHT22;13429;48.816;9.118;2024-03-06T02:04:22;5.20;88.40
25532;DHT22;13429;48.816;9.118;2024-03-06T02:06:49;5.20;88.50
25532;DHT22;13429;48.816;9.118;2024-03-06T02:09:15;5.20;88.60
25532;DHT22;13429;48.816;9.118;2024-03-06T02:11:40;5.20;88.50
25532;DHT22;13429;48.816;9.118;2024-03-06T02:14:07;5.20;88.40
25532;DHT22;13429;48.816;9.118;2024-03-06T02:16:35;5.30;88.50
25532;DHT22;13429;48.816;9.118;2024-03-06T02:19:01;5.20;88.40
25532;DHT22;13429;48.816;9.118;2024-03-06T02:21:27;5.30;88.40
25532;DHT22;13429;48.816;9.118;2024-03-06T02:23:52;5.30;88.50
25532;DHT22;13429;48.816;9.118;2024-03-06T02:26:20;5.30;88.50
25532;DHT22;13429;48.816;9.118;2024-03-06T02:28:54;5.30;88.50
25532;DHT22;13429;48.816;9.118;2024-03-06T02:31:21;5.30;88.60
25532;DHT22;13429;48.816;9.118;2024-03-06T02:33:47;5.30;88.60
25532;DHT22;13429;48.816;9.118;2024-03-06T02:36:22;5.30;88.50
25532;DHT22;13429;48.816;9.118;2024-03-06T02:38:48;5.30;88.70
25532;DHT22;13429;48.816;9.118;2024-03-06T02:41:14;5.30;88.80
25532;DHT22;13429;48.816;9.118;2024-03-06T02:43:41;5.30;88.60
25532;DHT22;13429;48.816;9.118;2024-03-06T02:46:07;5.30;88.60
25532;DHT22;13429;48.816;9.118;2024-03-06T02:48:32;5.30;88.60
25532;DHT22;13429;48.816;9.118;2024-03-06T02:50:59;5.30;88.60
25532;DHT22;13429;48.816;9.118;2024-03-06T02:53:25;5.30;88.70
25532;DHT22;13429;48.816;9.118;2024-03-06T02:55:52;5.20;88.90
25532;DHT22;13429;48.816;9.118;2024-03-06T02:58:17;5.20;88.90
25532;DHT22;13429;48.816;9.118;2024-03-06T03:00:43;5.20;89.10
25532;DHT22;13429;48.816;9.118;2024-03-06T03:03:09;5.10;89.40
25532;DHT22;13429;48.816;9.118;2024-03-06T03:05:37;5.10;89.50
25532;DHT22;13429;48.816;9.118;2024-03-06T03:08:03;5.10;89.60
25532;DHT22;13429;48.816;9.118;2024-03-06T03:10:30;5.10;89.70
25532;DHT22;13429;48.816;9.118;2024-03-06T03:12:56;5.10;89.80
25532;DHT22;13429;48.816;9.118;2024-03-06T03:15:22;5.00;89.80
25532;DHT22;13429;48.816;9.118;2024-03-06T03:17:47;5.00;89.90
25532;DHT22;13429;48.816;9.118;2024-03-06T03:20:13;5.00;90.00
25532;DHT22;13429;48.816;9.118;2024-03-06T03:22:42;5.00;90.00
25532;DHT22;13429;48.816;9.118;2024-03-06T03:25:09;5.00;90.00
25532;DHT22;13429;48.816;9.118;2024-03-06T03:27:37;5.00;90.10
25532;DHT22;13429;48.816;9.118;2024-03-06T03:30:04;5.00;90.20
25532;DHT22;13429;48.816;9.118;2024-03-06T03:32:30;5.00;90.10
25532;DHT22;13429;48.816;9.118;2024-03-06T03:34:56;5.00;89.80
25532;DHT22;13429;48.816;9.118;2024-03-06T03:37:21;5.00;90.00
25532;DHT22;13429;48.816;9.118;2024-03-06T03:39:47;5.00;90.10
25532;DHT22;13429;48.816;9.118;2024-03-06T03:42:13;5.00;90.10
25532;DHT22;13429;48.816;9.118;2024-03-06T03:44:38;5.00;90.10
25532;DHT22;13429;48.816;9.118;2024-03-06T03:47:05;5.00;90.20
25532;DHT22;13429;48.816;9.118;2024-03-06T03:49:31;5.00;90.40
25532;DHT22;13429;48.816;9.118;2024-03-06T03:51:56;5.00;90.40
25532;DHT22;13429;48.816;9.118;2024-03-06T03:54:22;5.00;90.50
25532;DHT22;13429;48.816;9.118;2024-03-06T03:56:47;5.00;90.50
25532;DHT22;13429;48.816;9.118;2024-03-06T03:59:14;5.00;90.60
25532;DHT22;13429;48.816;9.118;2024-03-06T04:01:39;5.00;90.60
25532;DHT22;13429;48.816;9.118;2024-03-06T04:04:05;5.00;90.70
25532;DHT22;13429;48.816;9.118;2024-03-06T04:06:32;5.00;90.60
25532;DHT22;13429;48.816;9.118;2024-03-06T04:08:58;5.00;90.50
25532;DHT22;13429;48.816;9.118;2024-03-06T04:11:23;5.00;90.20
25532;DHT22;13429;48.816;9.118;2024-03-06T04:13:49;5.00;90.20
25532;DHT22;13429;48.816;9.118;2024-03-06T04:16:17;5.00;90.40
25532;DHT22;13429;48.816;9.118;2024-03-06T04:18:44;5.00;90.40
25532;DHT22;13429;48.816;9.118;2024-03-06T04:21:10;5.10;90.30
25532;DHT22;13429;48.816;9.118;2024-03-06T04:23:36;5.10;90.40
25532;DHT22;13429;48.816;9.118;2024-03-06T04:26:03;5.10;90.40
25532;DHT22;13429;48.816;9.118;2024-03-06T04:28:29;5.10;90.40
25532;DHT22;13429;48.816;9.118;2024-03-06T04:30:55;5.10;90.40
25532;DHT22;13429;48.816;9.118;2024-03-06T04:33:21;5.10;90.40
25532;DHT22;13429;48.816;9.118;2024-03-06T04:35:47;5.10;90.40
25532;DHT22;13429;48.816;9.118;2024-03-06T04:38:13;5.10;90.60
25532;DHT22;13429;48.816;9.118;2024-03-06T04:40:39;5.10;90.60
25532;DHT22;13429;48.816;9.118;2024-03-06T04:43:05;5.00;90.90
25532;DHT22;13429;48.816;9.118;2024-03-06T04:45:32;5.10;90.90
25532;DHT22;13429;48.816;9.118;2024-03-06T04:47:58;5.00;90.90
25532;DHT22;13429;48.816;9.118;2024-03-06T04:50:23;5.00;90.80
25532;DHT22;13429;48.816;9.118;2024-03-06T04:52:49;5.00;90.90
25532;DHT22;13429;48.816;9.118;2024-03-06T04:55:15;5.00;91.10
25532;DHT22;13429;48.816;9.118;2024-03-06T04:57:45;5.00;91.20
25532;DHT22;13429;48.816;9.118;2024-03-06T05:00:12;5.10;91.10
25532;DHT22;13429;48.816;9.118;2024-03-06T05:02:38;5.10;91.10
25532;DHT22;13429;48.816;9.118;2024-03-06T05:05:04;5.10;91.20
25532;DHT22;13429;48.816;9.118;2024-03-06T05:07:30;5.10;91.20
25532;DHT22;13429;48.816;9.118;2024-03-06T05:09:57;5.10;91.20
25532;DHT22;13429;48.816;9.118;2024-03-06T05:12:24;5.10;91.30
25532;DHT22;13429;48.816;9.118;2024-03-06T05:14:50;5.10;91.60
25532;DHT22;13429;48.816;9.118;2024-03-06T05:17:16;5.10;91.30
25532;DHT22;13429;48.816;9.118;2024-03-06T05:19:43;5.20;91.30
25532;DHT22;13429;48.816;9.118;2024-03-06T05:22:10;5.20;91.30
25532;DHT22;13429;48.816;9.118;2024-03-06T05:24:39;5.20;91.20
25532;DHT22;13429;48.816;9.118;2024-03-06T05:27:05;5.20;91.20
25532;DHT22;13429;48.816;9.118;2024-03-06T05:29:31;5.20;91.20
25532;DHT22;13429;48.816;9.118;2024-03-06T05:31:57;5.20;91.20
25532;DHT22;13429;48.816;9.118;2024-03-06T05:34:23;5.30;91.20
25532;DHT22;13429;48.816;9.118;2024-03-06T05:36:49;5.30;91.20
25532;DHT22;13429;48.816;9.118;2024-03-06T05:39:14;5.30;91.30
25532;DHT22;13429;48.816;9.118;2024-03-06T05:41:40;5.20;91.20
25532;DHT22;13429;48.816;9.118;2024-03-06T05:44:07;5.30;91.30
25532;DHT22;13429;48.816;9.118;2024-03-06T05:46:33;5.30;91.40
25532;DHT22;13429;48.816;9.118;2024-03-06T05:48:59;5.20;91.50
25532;DHT22;13429;48.816;9.118;2024-03-06T05:51:25;5.30;91.50
25532;DHT22;13429;48.816;9.118;2024-03-06T05:53:50;5.30;91.50
25532;DHT22;13429;48.816;9.118;2024-03-06T05:56:19;5.30;91.60
25532;DHT22;13429;48.816;9.118;2024-03-06T05:58:45;5.20;91.80
25532;DHT22;13429;48.816;9.118;2024-03-06T06:01:18;5.20;91.80
25532;DHT22;13429;48.816;9.118;2024-03-06T06:03:50;5.20;91.60
25532;DHT22;13429;48.816;9.118;2024-03-06T06:06:16;5.30;91.70
25532;DHT22;13429;48.816;9.118;2024-03-06T06:08:42;5.30;91.60
25532;DHT22;13429;48.816;9.118;2024-03-06T06:11:09;5.30;91.70
25532;DHT22;13429;48.816;9.118;2024-03-06T06:13:35;5.30;91.70
25532;DHT22;13429;48.816;9.118;2024-03-06T06:16:01;5.30;91.90
25532;DHT22;13429;48.816;9.118;2024-03-06T06:18:32;5.30;92.00
25532;DHT22;13429;48.816;9.118;2024-03-06T06:20:58;5.30;92.00
25532;DHT22;13429;48.816;9.118;2024-03-06T06:23:24;5.30;91.90
25532;DHT22;13429;48.816;9.118;2024-03-06T06:25:49;5.30;91.90
25532;DHT22;13429;48.816;9.118;2024-03-06T06:28:15;5.30;92.00
25532;DHT22;13429;48.816;9.118;2024-03-06T06:30:41;5.30;91.90
25532;DHT22;13429;48.816;9.118;2024-03-06T06:33:07;5.30;92.10
25532;DHT22;13429;48.816;9.118;2024-03-06T06:35:33;5.30;92.10
25532;DHT22;13429;48.816;9.118;2024-03-06T06:38:00;5.30;92.00
25532;DHT22;13429;48.816;9.118;2024-03-06T06:40:26;5.40;92.00
25532;DHT22;13429;48.816;9.118;2024-03-06T06:42:53;5.40;91.90
25532;DHT22;13429;48.816;9.118;2024-03-06T06:45:20;5.50;91.90
25532;DHT22;13429;48.816;9.118;2024-03-06T06:47:48;5.50;92.00
25532;DHT22;13429;48.816;9.118;2024-03-06T06:50:14;5.50;92.00
25532;DHT22;13429;48.816;9.118;2024-03-06T06:52:41;5.50;92.10
25532;DHT22;13429;48.816;9.118;2024-03-06T06:55:07;5.60;92.00
25532;DHT22;13429;48.816;9.118;2024-03-06T06:57:34;5.60;91.90
25532;DHT22;13429;48.816;9.118;2024-03-06T07:00:03;5.60;91.80
25532;DHT22;13429;48.816;9.118;2024-03-06T07:02:41;5.60;91.60
25532;DHT22;13429;48.816;9.118;2024-03-06T07:05:09;5.60;91.60
25532;DHT22;13429;48.816;9.118;2024-03-06T07:07:35;5.70;91.50
25532;DHT22;13429;48.816;9.118;2024-03-06T07:10:02;5.70;91.30
25532;DHT22;13429;48.816;9.118;2024-03-06T07:12:28;5.70;91.30
25532;DHT22;13429;48.816;9.118;2024-03-06T07:14:54;5.70;91.40
25532;DHT22;13429;48.816;9.118;2024-03-06T07:17:19;5.80;91.40
25532;DHT22;13429;48.816;9.118;2024-03-06T07:19:45;5.70;91.40
25532;DHT22;13429;48.816;9.118;2024-03-06T07:22:11;5.80;91.40
25532;DHT22;13429;48.816;9.118;2024-03-06T07:24:36;5.70;91.30
25532;DHT22;13429;48.816;9.118;2024-03-06T07:27:03;5.70;91.40
25532;DHT22;13429;48.816;9.118;2024-03-06T07:29:28;5.70;91.40
25532;DHT22;13429;48.816;9.118;2024-03-06T07:31:54;5.70;91.50
25532;DHT22;13429;48.816;9.118;2024-03-06T07:34:20;5.70;91.40
25532;DHT22;13429;48.816;9.118;2024-03-06T07:36:47;5.80;91.30
25532;DHT22;13429;48.816;9.118;2024-03-06T07:39:15;5.80;91.30
25532;DHT22;13429;48.816;9.118;2024-03-06T07:41:41;5.80;91.20
25532;DHT22;13429;48.816;9.118;2024-03-06T07:44:08;5.80;91.10
25532;DHT22;13429;48.816;9.118;2024-03-06T07:46:34;5.80;91.20
25532;DHT22;13429;48.816;9.118;2024-03-06T07:49:00;5.80;91.20
25532;DHT22;13429;48.816;9.118;2024-03-06T07:51:28;5.80;90.80
25532;DHT22;13429;48.816;9.118;2024-03-06T07:53:58;5.80;91.20
25532;DHT22;13429;48.816;9.118;2024-03-06T07:56:27;5.90;91.10
25532;DHT22;13429;48.816;9.118;2024-03-06T07:58:54;6.00;90.80
25532;DHT22;13429;48.816;9.118;2024-03-06T08:01:20;6.00;90.70
25532;DHT22;13429;48.816;9.118;2024-03-06T08:03:49;6.10;91.00
25532;DHT22;13429;48.816;9.118;2024-03-06T08:06:18;6.10;90.80
25532;DHT22;13429;48.816;9.118;2024-03-06T08:08:45;6.00;90.90
25532;DHT22;13429;48.816;9.118;2024-03-06T08:11:11;6.10;90.90
25532;DHT22;13429;48.816;9.118;2024-03-06T08:13:40;6.00;91.10
25532;DHT22;13429;48.816;9.118;2024-03-06T08:16:07;6.10;91.10
25532;DHT22;13429;48.816;9.118;2024-03-06T08:18:34;6.20;91.00
25532;DHT22;13429;48.816;9.118;2024-03-06T08:21:01;6.30;90.60
25532;DHT22;13429;48.816;9.118;2024-03-06T08:23:31;6.30;90.10
25532;DHT22;13429;48.816;9.118;2024-03-06T08:25:58;6.40;90.30
25532;DHT22;13429;48.816;9.118;2024-03-06T08:28:25;6.30;90.00
25532;DHT22;13429;48.816;9.118;2024-03-06T08:30:51;6.30;90.30
25532;DHT22;13429;48.816;9.118;2024-03-06T08:33:17;6.30;90.60
25532;DHT22;13429;48.816;9.118;2024-03-06T08:35:43;6.30;90.60
25532;DHT22;13429;48.816;9.118;2024-03-06T08:38:09;6.40;90.30
25532;DHT22;13429;48.816;9.118;2024-03-06T08:40:35;6.40;90.40
25532;DHT22;13429;48.816;9.118;2024-03-06T08:43:00;6.30;90.40
25532;DHT22;13429;48.816;9.118;2024-03-06T08:45:26;6.30;90.60
25532;DHT22;13429;48.816;9.118;2024-03-06T08:47:51;6.30;90.40
25532;DHT22;13429;48.816;9.118;2024-03-06T08:50:20;6.30;90.60
25532;DHT22;13429;48.816;9.118;2024-03-06T08:52:46;6.30;90.50
25532;DHT22;13429;48.816;9.118;2024-03-06T08:55:12;6.40;90.40
25532;DHT22;13429;48.816;9.118;2024-03-06T08:57:39;6.50;90.60
25532;DHT22;13429;48.816;9.118;2024-03-06T09:00:06;6.50;90.40
25532;DHT22;13429;48.816;9.118;2024-03-06T09:02:38;6.60;90.50
25532;DHT22;13429;48.816;9.118;2024-03-06T09:05:05;6.50;90.20
25532;DHT22;13429;48.816;9.118;2024-03-06T09:07:31;6.50;90.00
25532;DHT22;13429;48.816;9.118;2024-03-06T09:10:03;6.60;90.10
25532;DHT22;13429;48.816;9.118;2024-03-06T09:12:30;6.60;90.20
25532;DHT22;13429;48.816;9.118;2024-03-06T09:14:55;6.60;90.00
25532;DHT22;13429;48.816;9.118;2024-03-06T09:17:21;6.60;89.90
25532;DHT22;13429;48.816;9.118;2024-03-06T09:19:47;6.70;89.80
25532;DHT22;13429;48.816;9.118;2024-03-06T09:22:12;6.80;90.10
25532;DHT22;13429;48.816;9.118;2024-03-06T09:24:38;6.80;90.00
25532;DHT22;13429;48.816;9.118;2024-03-06T09:27:04;6.80;90.00
25532;DHT22;13429;48.816;9.118;2024-03-06T09:29:30;6.80;89.50
25532;DHT22;13429;48.816;9.118;2024-03-06T09:31:56;6.80;89.80
25532;DHT22;13429;48.816;9.118;2024-03-06T09:34:22;6.70;89.80
25532;DHT22;13429;48.816;9.118;2024-03-06T09:36:49;6.50;90.00
25532;DHT22;13429;48.816;9.118;2024-03-06T09:39:16;6.60;90.20
25532;DHT22;13429;48.816;9.118;2024-03-06T09:41:49;6.60;90.20
25532;DHT22;13429;48.816;9.118;2024-03-06T09:44:16;6.60;90.00
25532;DHT22;13429;48.816;9.118;2024-03-06T09:46:47;6.50;90.10
25532;DHT22;13429;48.816;9.118;2024-03-06T09:49:15;6.50;90.20
25532;DHT22;13429;48.816;9.118;2024-03-06T09:51:48;6.50;90.20
25532;DHT22;13429;48.816;9.118;2024-03-06T09:54:19;6.50;90.60
25532;DHT22;13429;48.816;9.118;2024-03-06T09:56:48;6.60;90.50
25532;DHT22;13429;48.816;9.118;2024-03-06T09:59:14;6.60;90.40
25532;DHT22;13429;48.816;9.118;2024-03-06T10:01:53;6.60;90.40
25532;DHT22;13429;48.816;9.118;2024-03-06T10:04:24;6.60;90.30
25532;DHT22;13429;48.816;9.118;2024-03-06T10:06:50;6.60;90.00
25532;DHT22;13429;48.816;9.118;2024-03-06T10:09:20;6.60;89.90
25532;DHT22;13429;48.816;9.118;2024-03-06T10:11:46;6.60;90.10
25532;DHT22;13429;48.816;9.118;2024-03-06T10:14:12;6.50;90.20
25532;DHT22;13429;48.816;9.118;2024-03-06T10:16:51;6.60;90.40
25532;DHT22;13429;48.816;9.118;2024-03-06T10:19:17;6.60;90.40
25532;DHT22;13429;48.816;9.118;2024-03-06T10:21:47;6.60;90.40
25532;DHT22;13429;48.816;9.118;2024-03-06T10:24:23;6.70;90.70
25532;DHT22;13429;48.816;9.118;2024-03-06T10:26:55;6.80;90.50
25532;DHT22;13429;48.816;9.118;2024-03-06T10:29:22;6.80;90.30
25532;DHT22;13429;48.816;9.118;2024-03-06T10:31:49;6.90;90.30
25532;DHT22;13429;48.816;9.118;2024-03-06T10:34:16;6.90;90.30
25532;DHT22;13429;48.816;9.118;2024-03-06T10:36:42;6.80;90.30
25532;DHT22;13429;48.816;9.118;2024-03-06T10:39:11;6.80;90.40
25532;DHT22;13429;48.816;9.118;2024-03-06T10:41:40;6.80;90.40
25532;DHT22;13429;48.816;9.118;2024-03-06T10:44:13;6.80;90.60
25532;DHT22;13429;48.816;9.118;2024-03-06T10:46:43;6.90;90.50
25532;DHT22;13429;48.816;9.118;2024-03-06T10:49:10;7.00;90.50
25532;DHT22;13429;48.816;9.118;2024-03-06T10:51:39;7.10;90.40
25532;DHT22;13429;48.816;9.118;2024-03-06T10:54:08;7.00;90.30
25532;DHT22;13429;48.816;9.118;2024-03-06T10:56:34;6.90;90.30
25532;DHT22;13429;48.816;9.118;2024-03-06T10:59:00;6.80;90.70
25532;DHT22;13429;48.816;9.118;2024-03-06T11:01:29;6.90;90.80
25532;DHT22;13429;48.816;9.118;2024-03-06T11:03:58;6.80;90.90
25532;DHT22;13429;48.816;9.118;2024-03-06T11:06:26;6.80;91.00
25532;DHT22;13429;48.816;9.118;2024-03-06T11:08:52;6.80;91.10
25532;DHT22;13429;48.816;9.118;2024-03-06T11:11:24;6.80;91.20
25532;DHT22;13429;48.816;9.118;2024-03-06T11:13:54;6.70;91.30
25532;DHT22;13429;48.816;9.118;2024-03-06T11:16:27;6.70;91.30
25532;DHT22;13429;48.816;9.118;2024-03-06T11:19:07;6.80;91.50
25532;DHT22;13429;48.816;9.118;2024-03-06T11:21:33;6.70;91.70
25532;DHT22;13429;48.816;9.118;2024-03-06T11:26:37;6.70;91.50
25532;DHT22;13429;48.816;9.118;2024-03-06T11:29:02;6.70;91.50
25532;DHT22;13429;48.816;9.118;2024-03-06T11:31:28;6.70;91.50
25532;DHT22;13429;48.816;9.118;2024-03-06T11:33:54;6.70;91.10
25532;DHT22;13429;48.816;9.118;2024-03-06T11:36:28;6.70;91.30
25532;DHT22;13429;48.816;9.118;2024-03-06T11:39:01;6.80;91.50
25532;DHT22;13429;48.816;9.118;2024-03-06T11:41:30;6.70;91.40
25532;DHT22;13429;48.816;9.118;2024-03-06T11:43:57;6.80;91.50
25532;DHT22;13429;48.816;9.118;2024-03-06T11:46:50;6.70;91.80
25532;DHT22;13429;48.816;9.118;2024-03-06T11:49:22;6.60;91.80
25532;DHT22;13429;48.816;9.118;2024-03-06T11:51:52;6.60;91.80
25532;DHT22;13429;48.816;9.118;2024-03-06T11:54:18;6.70;91.90
25532;DHT22;13429;48.816;9.118;2024-03-06T11:56:49;6.70;91.80
25532;DHT22;13429;48.816;9.118;2024-03-06T11:59:17;6.70;91.90
25532;DHT22;13429;48.816;9.118;2024-03-06T12:01:43;6.80;92.00
25532;DHT22;13429;48.816;9.118;2024-03-06T12:04:08;6.70;92.00
25532;DHT22;13429;48.816;9.118;2024-03-06T12:06:35;6.70;91.70
25532;DHT22;13429;48.816;9.118;2024-03-06T12:09:01;6.80;91.80
25532;DHT22;13429;48.816;9.118;2024-03-06T12:11:27;6.70;91.60
25532;DHT22;13429;48.816;9.118;2024-03-06T12:13:54;6.70;91.80
25532;DHT22;13429;48.816;9.118;2024-03-06T12:16:21;6.80;91.70
25532;DHT22;13429;48.816;9.118;2024-03-06T12:18:53;6.80;91.60
25532;DHT22;13429;48.816;9.118;2024-03-06T12:21:19;6.80;91.60
25532;DHT22;13429;48.816;9.118;2024-03-06T12:23:44;6.80;91.60
25532;DHT22;13429;48.816;9.118;2024-03-06T12:26:10;6.70;91.90
25532;DHT22;13429;48.816;9.118;2024-03-06T12:28:39;6.70;92.00
25532;DHT22;13429;48.816;9.118;2024-03-06T12:31:06;6.70;92.10
25532;DHT22;13429;48.816;9.118;2024-03-06T12:33:33;6.70;92.20
25532;DHT22;13429;48.816;9.118;2024-03-06T12:36:08;6.70;92.20
25532;DHT22;13429;48.816;9.118;2024-03-06T12:38:37;6.70;92.20
25532;DHT22;13429;48.816;9.118;2024-03-06T12:41:03;6.80;92.30
25532;DHT22;13429;48.816;9.118;2024-03-06T12:43:30;6.80;92.40
25532;DHT22;13429;48.816;9.118;2024-03-06T12:45:56;6.80;92.40
25532;DHT22;13429;48.816;9.118;2024-03-06T12:48:23;6.80;92.30
25532;DHT22;13429;48.816;9.118;2024-03-06T12:50:48;6.90;92.20
25532;DHT22;13429;48.816;9.118;2024-03-06T12:53:21;6.80;92.00
25532;DHT22;13429;48.816;9.118;2024-03-06T12:55:47;6.80;91.90
25532;DHT22;13429;48.816;9.118;2024-03-06T12:58:14;6.80;91.80
25532;DHT22;13429;48.816;9.118;2024-03-06T13:00:41;6.80;92.10
25532;DHT22;13429;48.816;9.118;2024-03-06T13:03:07;6.80;91.80
25532;DHT22;13429;48.816;9.118;2024-03-06T13:05:32;6.80;91.70
25532;DHT22;13429;48.816;9.118;2024-03-06T13:07:58;6.70;91.70
25532;DHT22;13429;48.816;9.118;2024-03-06T13:10:28;6.80;91.80
25532;DHT22;13429;48.816;9.118;2024-03-06T13:12:53;6.80;91.70
25532;DHT22;13429;48.816;9.118;2024-03-06T13:15:20;6.80;91.70
25532;DHT22;13429;48.816;9.118;2024-03-06T13:17:45;6.80;91.60
25532;DHT22;13429;48.816;9.118;2024-03-06T13:20:11;6.80;91.80
25532;DHT22;13429;48.816;9.118;2024-03-06T13:22:40;6.80;91.80
25532;DHT22;13429;48.816;9.118;2024-03-06T13:25:06;6.80;91.80
25532;DHT22;13429;48.816;9.118;2024-03-06T13:27:32;6.80;91.80
25532;DHT22;13429;48.816;9.118;2024-03-06T13:29:58;6.80;91.70
25532;DHT22;13429;48.816;9.118;2024-03-06T13:32:24;6.80;91.70
25532;DHT22;13429;48.816;9.118;2024-03-06T13:34:50;6.80;91.60
25532;DHT22;13429;48.816;9.118;2024-03-06T13:37:15;6.80;91.50
25532;DHT22;13429;48.816;9.118;2024-03-06T13:39:41;6.90;91.70
25532;DHT22;13429;48.816;9.118;2024-03-06T13:42:08;6.90;91.70
25532;DHT22;13429;48.816;9.118;2024-03-06T13:44:37;7.00;91.80
25532;DHT22;13429;48.816;9.118;2024-03-06T13:47:03;7.00;91.60
25532;DHT22;13429;48.816;9.118;2024-03-06T13:49:39;7.10;91.70
25532;DHT22;13429;48.816;9.118;2024-03-06T13:52:06;7.00;91.70
25532;DHT22;13429;48.816;9.118;2024-03-06T13:54:33;7.00;91.80
25532;DHT22;13429;48.816;9.118;2024-03-06T13:56:59;7.00;91.80
25532;DHT22;13429;48.816;9.118;2024-03-06T13:59:31;6.90;92.20
25532;DHT22;13429;48.816;9.118;2024-03-06T14:01:57;6.90;92.10
25532;DHT22;13429;48.816;9.118;2024-03-06T14:04:24;6.90;92.20
25532;DHT22;13429;48.816;9.118;2024-03-06T14:06:50;6.80;92.30
25532;DHT22;13429;48.816;9.118;2024-03-06T14:09:16;6.90;92.60
25532;DHT22;13429;48.816;9.118;2024-03-06T14:11:41;6.90;92.60
25532;DHT22;13429;48.816;9.118;2024-03-06T14:14:08;6.90;92.40
25532;DHT22;13429;48.816;9.118;2024-03-06T14:16:34;6.90;92.70
25532;DHT22;13429;48.816;9.118;2024-03-06T14:19:01;6.90;93.00
25532;DHT22;13429;48.816;9.118;2024-03-06T14:21:26;7.00;92.80
25532;DHT22;13429;48.816;9.118;2024-03-06T14:23:52;7.00;92.70
25532;DHT22;13429;48.816;9.118;2024-03-06T14:26:18;6.90;92.70
25532;DHT22;13429;48.816;9.118;2024-03-06T14:28:43;6.90;92.90
25532;DHT22;13429;48.816;9.118;2024-03-06T14:31:09;6.90;92.90
25532;DHT22;13429;48.816;9.118;2024-03-06T14:33:37;6.90;92.90
25532;DHT22;13429;48.816;9.118;2024-03-06T14:36:03;6.90;93.00
25532;DHT22;13429;48.816;9.118;2024-03-06T14:38:29;6.90;93.00
25532;DHT22;13429;48.816;9.118;2024-03-06T14:40:54;6.90;93.20
25532;DHT22;13429;48.816;9.118;2024-03-06T14:43:20;6.90;93.10
25532;DHT22;13429;48.816;9.118;2024-03-06T14:45:46;6.80;93.10
25532;DHT22;13429;48.816;9.118;2024-03-06T14:48:11;6.80;93.30
25532;DHT22;13429;48.816;9.118;2024-03-06T14:50:37;6.80;93.60
25532;DHT22;13429;48.816;9.118;2024-03-06T14:53:03;6.80;93.50
25532;DHT22;13429;48.816;9.118;2024-03-06T14:55:30;6.80;93.50
25532;DHT22;13429;48.816;9.118;2024-03-06T14:57:55;6.80;93.50
25532;DHT22;13429;48.816;9.118;2024-03-06T15:00:21;6.80;93.60
25532;DHT22;13429;48.816;9.118;2024-03-06T15:02:48;6.80;93.50
25532;DHT22;13429;48.816;9.118;2024-03-06T15:05:13;6.80;93.70
25532;DHT22;13429;48.816;9.118;2024-03-06T15:07:39;6.80;93.70
25532;DHT22;13429;48.816;9.118;2024-03-06T15:10:08;6.80;93.70
25532;DHT22;13429;48.816;9.118;2024-03-06T15:12:34;6.80;93.90
25532;DHT22;13429;48.816;9.118;2024-03-06T15:15:03;6.80;93.80
25532;DHT22;13429;48.816;9.118;2024-03-06T15:17:32;6.80;93.70
25532;DHT22;13429;48.816;9.118;2024-03-06T15:19:58;6.80;93.90
25532;DHT22;13429;48.816;9.118;2024-03-06T15:22:24;6.80;93.90
25532;DHT22;13429;48.816;9.118;2024-03-06T15:24:49;6.80;93.90
25532;DHT22;13429;48.816;9.118;2024-03-06T15:27:18;6.80;94.00
25532;DHT22;13429;48.816;9.118;2024-03-06T15:29:43;6.80;93.90
25532;DHT22;13429;48.816;9.118;2024-03-06T15:32:10;6.80;93.90
25532;DHT22;13429;48.816;9.118;2024-03-06T15:34:36;6.80;94.00
25532;DHT22;13429;48.816;9.118;2024-03-06T15:37:02;6.80;94.00
25532;DHT22;13429;48.816;9.118;2024-03-06T15:39:28;6.80;94.00
25532;DHT22;13429;48.816;9.118;2024-03-06T15:41:54;6.80;94.10
25532;DHT22;13429;48.816;9.118;2024-03-06T15:44:21;6.80;94.10
25532;DHT22;13429;48.816;9.118;2024-03-06T15:46:46;6.80;94.10